Time;durP1;ratioP1;P1;durP2;ratioP2;P2;SDS_P1;SDS_P2;PMS_P1;PMS_P2;Temp;Humidity;BMP_temperature;BMP_pressure;BME280_temperature;BME280_humidity;BME280_pressure;Samples;Min_cycle;Max_cycle;Signal;HPM_P1;HPM_P2
2022/01/28 00:04:50;;;;;;;37.70;18.80;;;;;;;-1.35;100.00;-23776.97;5073895;28;20234;-72
2022/01/28 00:07:16;;;;;;;41.00;20.27;;;;;;;-1.77;100.00;-23764.94;5073937;28;20174;-73
2022/01/28 00:09:41;;;;;;;36.27;18.50;;;;;;;-1.49;100.00;-23772.81;5074211;28;20182;-73
2022/01/28 00:12:08;;;;;;;39.40;19.10;;;;;;;-1.88;100.00;-23761.78;5073920;28;20206;-73
2022/01/28 00:20:27;;;;;;;37.33;19.17;;;;;;;-1.91;100.00;-23761.06;5074082;28;20231;-72
2022/01/28 00:38:52;;;;;;;40.10;18.93;;;;;;;-2.01;100.00;-23758.19;5073177;28;20220;-72
2022/01/28 00:41:18;;;;;;;36.63;19.00;;;;;;;-1.70;100.00;-23766.78;5073265;28;20182;-72
2022/01/28 00:43:43;;;;;;;35.57;18.90;;;;;;;-1.95;100.00;-23759.91;5073461;28;20220;-72
2022/01/28 00:46:09;;;;;;;36.70;18.53;;;;;;;-1.84;100.00;-23762.91;5055206;28;20274;-72
2022/01/28 00:48:34;;;;;;;33.10;18.73;;;;;;;-2.32;100.00;-23749.28;5073594;28;20182;-72
2022/01/28 00:51:00;;;;;;;34.37;18.47;;;;;;;-1.81;100.00;-23763.78;5072740;28;20280;-72
2022/01/28 00:53:25;;;;;;;37.33;19.13;;;;;;;-1.59;100.00;-23769.94;5071329;28;20734;-72
2022/01/28 00:55:54;;;;;;;39.37;18.53;;;;;;;-1.69;100.00;-23767.22;5072425;28;20168;-72
2022/01/28 00:58:20;;;;;;;36.20;18.13;;;;;;;-1.98;100.00;-23758.91;5074150;28;20223;-72
2022/01/28 01:00:45;;;;;;;33.90;18.03;;;;;;;-1.58;100.00;-23770.25;5063292;28;20185;-72
2022/01/28 01:03:10;;;;;;;35.47;17.23;;;;;;;-1.43;100.00;-23774.53;5081782;28;20185;-72
2022/01/28 01:05:36;;;;;;;33.07;16.47;;;;;;;-1.39;100.00;-23775.84;5092594;28;20292;-73
2022/01/28 01:08:03;;;;;;;34.30;17.40;;;;;;;-1.92;100.00;-23760.75;5079029;28;20193;-73
2022/01/28 01:10:30;;;;;;;32.30;16.77;;;;;;;-1.49;100.00;-23772.81;5074596;28;20185;-72
2022/01/28 01:12:55;;;;;;;34.80;17.30;;;;;;;-1.59;100.00;-23769.94;5076629;28;20206;-72
2022/01/28 01:15:25;;;;;;;33.10;17.13;;;;;;;-1.50;100.00;-23772.53;5081123;28;20318;-73
2022/01/28 01:18:17;;;;;;;31.97;16.23;;;;;;;-1.47;100.00;-23773.53;5092780;28;20255;-72
2022/01/28 01:23:15;;;;;;;31.00;16.73;;;;;;;-1.53;100.00;-23771.69;5078035;28;20687;-73
2022/01/28 01:25:54;;;;;;;30.47;16.13;;;;;;;-1.87;100.00;-23762.19;5071488;28;20186;-74
2022/01/28 01:28:22;;;;;;;35.20;16.23;;;;;;;-2.01;100.00;-23758.19;5079712;28;20672;-72
2022/01/28 01:30:48;;;;;;;33.17;16.30;;;;;;;-1.49;100.00;-23772.97;5080722;28;20265;-72
2022/01/28 01:33:19;;;;;;;29.23;15.63;;;;;;;-2.03;100.00;-23757.47;5079281;28;20205;-73
2022/01/28 01:35:44;;;;;;;32.83;16.27;;;;;;;-2.08;100.00;-23756.16;5077171;28;20539;-73
2022/01/28 01:38:10;;;;;;;32.40;16.97;;;;;;;-2.01;100.00;-23758.03;5084599;28;20240;-72
2022/01/28 01:43:19;;;;;;;29.07;16.47;;;;;;;-1.69;100.00;-23767.22;5084261;28;20197;-72
2022/01/28 01:53:51;;;;;;;32.50;16.97;;;;;;;-1.57;100.00;-23770.66;5082267;28;20181;-73
2022/01/28 01:56:19;;;;;;;33.53;16.97;;;;;;;-1.75;100.00;-23765.34;5078470;28;20177;-73
2022/01/28 01:58:45;;;;;;;28.83;15.73;;;;;;;-1.85;100.00;-23762.78;5076205;28;20185;-72
2022/01/28 02:01:11;;;;;;;25.63;14.43;;;;;;;-2.08;100.00;-23756.03;5083634;28;20560;-73
2022/01/28 02:03:37;;;;;;;31.40;15.10;;;;;;;-1.99;100.00;-23758.75;5084049;28;20173;-73
2022/01/28 02:06:03;;;;;;;29.10;15.90;;;;;;;-2.02;100.00;-23757.91;5081154;28;20223;-73
2022/01/28 02:08:31;;;;;;;27.10;14.57;;;;;;;-2.11;100.00;-23755.31;5079352;28;20185;-73
2022/01/28 02:10:58;;;;;;;29.30;15.63;;;;;;;-2.37;100.00;-23747.84;5075425;28;20215;-73
2022/01/28 02:13:34;;;;;;;29.37;14.37;;;;;;;-1.96;100.00;-23759.63;5084227;28;20212;-73
2022/01/28 02:16:01;;;;;;;30.30;15.50;;;;;;;-2.37;100.00;-23748.00;5080051;28;20225;-73
2022/01/28 02:18:27;;;;;;;30.20;16.80;;;;;;;-1.95;100.00;-23759.91;5083715;28;20528;-73
2022/01/28 02:20:55;;;;;;;26.57;14.57;;;;;;;-1.95;100.00;-23759.91;5082224;28;20181;-73
2022/01/28 02:23:22;;;;;;;26.70;14.83;;;;;;;-2.09;100.00;-23755.75;5078085;28;20176;-73
2022/01/28 02:25:48;;;;;;;26.63;14.10;;;;;;;-1.84;100.00;-23763.06;5081606;28;21119;-73
2022/01/28 02:28:18;;;;;;;27.37;14.87;;;;;;;-1.88;100.00;-23761.78;5082923;28;20181;-73
2022/01/28 02:30:44;;;;;;;28.83;15.30;;;;;;;-3.28;100.00;-23721.97;5075400;28;20195;-73
2022/01/28 02:33:16;;;;;;;24.53;13.83;;;;;;;-2.07;100.00;-23756.47;5081749;28;20642;-73
2022/01/28 02:35:43;;;;;;;29.37;16.33;;;;;;;-2.16;100.00;-23753.72;5077858;28;20173;-73
2022/01/28 02:38:13;;;;;;;28.83;15.77;;;;;;;-2.15;100.00;-23754.16;5079952;28;20551;-73
2022/01/28 02:40:42;;;;;;;30.47;15.73;;;;;;;-2.27;100.00;-23750.72;5083167;28;20636;-73
2022/01/28 02:45:40;;;;;;;25.03;14.87;;;;;;;-2.85;100.00;-23734.34;5080749;28;20554;-73
2022/01/28 02:48:13;;;;;;;27.27;15.10;;;;;;;-2.46;100.00;-23745.41;5081884;28;20206;-73
2022/01/28 02:51:00;;;;;;;28.80;14.63;;;;;;;-2.49;100.00;-23744.38;5060876;28;20580;-73
2022/01/28 02:56:34;;;;;;;29.67;15.07;;;;;;;-3.01;100.00;-23729.75;5078859;28;20188;-73
2022/01/28 02:59:00;;;;;;;26.63;14.03;;;;;;;-2.89;100.00;-23733.19;5078322;28;20196;-73
2022/01/28 03:01:26;;;;;;;25.70;14.37;;;;;;;-2.75;100.00;-23737.06;5080323;28;20210;-73
2022/01/28 03:03:54;;;;;;;27.57;15.13;;;;;;;-2.21;100.00;-23752.44;5078532;28;20182;-73
2022/01/28 03:06:20;;;;;;;31.00;15.47;;;;;;;-2.27;100.00;-23750.72;5077141;28;20601;-73
2022/01/28 03:09:48;;;;;;;28.10;16.60;;;;;;;-2.79;100.00;-23736.06;5080194;28;20182;-73
2022/01/28 03:17:05;;;;;;;25.60;14.27;;;;;;;-2.75;100.00;-23737.06;5078528;28;20185;-70
2022/01/28 03:19:44;;;;;;;28.70;14.57;;;;;;;-2.30;100.00;-23749.84;5083295;28;20186;-74
2022/01/28 03:22:09;;;;;;;27.23;13.87;;;;;;;-2.27;100.00;-23750.72;5082044;28;20224;-71
2022/01/28 03:24:35;;;;;;;28.27;15.60;;;;;;;-2.58;100.00;-23741.81;5082915;28;20242;-71
2022/01/28 03:27:06;;;;;;;30.10;15.87;;;;;;;-2.76;100.00;-23736.91;5077518;28;20709;-72
2022/01/28 03:29:32;;;;;;;30.60;15.43;;;;;;;-2.47;100.00;-23745.13;5083299;28;20243;-72
2022/01/28 03:31:57;;;;;;;30.97;16.13;;;;;;;-2.87;100.00;-23733.75;5081135;28;20322;-72
2022/01/28 03:34:23;;;;;;;29.53;14.63;;;;;;;-2.54;100.00;-23743.09;5083700;28;20174;-72
2022/01/28 03:36:50;;;;;;;31.57;18.03;;;;;;;-2.52;100.00;-23743.53;5077737;28;20618;-72
2022/01/28 03:39:16;;;;;;;28.23;15.80;;;;;;;-2.47;100.00;-23744.97;5085906;28;20170;-72
2022/01/28 03:41:42;;;;;;;33.43;18.43;;;;;;;-2.26;100.00;-23751.00;5081740;28;20691;-72
2022/01/28 03:44:07;;;;;;;28.27;15.57;;;;;;;-2.72;100.00;-23738.06;5079696;28;20178;-72
2022/01/28 03:46:32;;;;;;;32.87;16.67;;;;;;;-2.92;100.00;-23732.31;5078249;28;20531;-72
2022/01/28 03:48:59;;;;;;;29.63;14.80;;;;;;;-2.54;100.00;-23743.09;5084822;28;20634;-72
2022/01/28 03:51:24;;;;;;;30.77;15.20;;;;;;;-2.92;100.00;-23732.19;5082738;28;20585;-72
2022/01/28 03:53:50;;;;;;;28.47;14.80;;;;;;;-2.70;100.00;-23738.50;5080976;28;20185;-72
2022/01/28 03:56:16;;;;;;;30.47;15.07;;;;;;;-2.54;100.00;-23742.97;5085872;28;20206;-72
2022/01/28 03:58:42;;;;;;;29.70;15.40;;;;;;;-3.09;100.00;-23727.44;5086290;28;20267;-72
2022/01/28 04:12:02;;;;;;;31.47;15.87;;;;;;;-2.51;100.00;-23743.81;5076537;28;20292;-72
2022/01/28 04:19:21;;;;;;;28.03;15.63;;;;;;;-2.69;100.00;-23738.94;5076332;28;20200;-72
2022/01/28 04:21:47;;;;;;;33.10;17.13;;;;;;;-2.90;100.00;-23732.91;5076691;28;21141;-72
2022/01/28 04:24:13;;;;;;;33.60;18.63;;;;;;;-2.42;100.00;-23746.56;5070508;28;20174;-73
2022/01/28 04:26:38;;;;;;;32.60;17.77;;;;;;;-2.76;100.00;-23736.78;5074186;28;20209;-72
2022/01/28 04:29:04;;;;;;;32.87;16.80;;;;;;;-2.53;100.00;-23743.25;5076015;28;20700;-73
2022/01/28 04:31:30;;;;;;;31.03;17.97;;;;;;;-2.39;100.00;-23747.25;5074902;28;20249;-72
2022/01/28 04:33:56;;;;;;;31.63;16.33;;;;;;;-2.89;100.00;-23733.19;5074283;28;20281;-73
2022/01/28 04:36:25;;;;;;;29.77;16.30;;;;;;;-2.32;100.00;-23749.28;5075487;28;20637;-72
2022/01/28 04:38:59;;;;;;;36.20;17.60;;;;;;;-2.42;100.00;-23746.41;5074976;28;20276;-72
2022/01/28 04:41:34;;;;;;;32.37;18.33;;;;;;;-2.39;100.00;-23747.41;5077659;28;20193;-72
2022/01/28 04:44:08;;;;;;;31.57;18.37;;;;;;;-2.97;100.00;-23730.75;5079694;28;20589;-73
2022/01/28 04:46:50;;;;;;;28.80;15.30;;;;;;;-2.73;100.00;-23737.78;5075731;28;20184;-73
2022/01/28 04:49:22;;;;;;;32.97;16.67;;;;;;;-2.63;100.00;-23740.50;5057730;28;20178;-72
2022/01/28 04:56:59;;;;;;;29.50;15.10;;;;;;;-3.16;100.00;-23725.41;5071842;28;20174;-73
2022/01/28 05:24:26;;;;;;;62.30;29.53;;;;;;;-3.39;100.00;-23718.94;5074381;28;20196;-72
2022/01/28 05:27:04;;;;;;;72.03;33.90;;;;;;;-3.38;100.00;-23719.09;5074869;28;20174;-72
2022/01/28 05:29:29;;;;;;;89.83;42.87;;;;;;;-2.93;100.00;-23731.88;5074662;28;20184;-72
2022/01/28 05:31:55;;;;;;;85.83;40.57;;;;;;;-2.97;100.00;-23730.88;5073702;28;20308;-72
2022/01/28 05:34:25;;;;;;;89.13;41.40;;;;;;;-2.89;100.00;-23733.19;5073282;28;20190;-72
2022/01/28 05:36:51;;;;;;;96.40;43.27;;;;;;;-3.02;100.00;-23729.31;5082853;28;20211;-72
2022/01/28 05:39:17;;;;;;;97.47;45.07;;;;;;;-3.31;100.00;-23721.25;5082939;28;20638;-72
2022/01/28 05:41:42;;;;;;;103.43;46.57;;;;;;;-3.20;100.00;-23724.41;5074462;28;20664;-72
2022/01/28 05:44:09;;;;;;;96.13;45.57;;;;;;;-3.17;100.00;-23725.28;5075201;28;20271;-72
2022/01/28 05:46:34;;;;;;;119.40;52.33;;;;;;;-3.18;100.00;-23725.00;5063587;28;20323;-72
2022/01/28 05:49:00;;;;;;;123.40;54.80;;;;;;;-3.54;100.00;-23714.50;5082250;28;20265;-72
2022/01/28 05:51:25;;;;;;;106.33;50.07;;;;;;;-3.14;100.00;-23726.00;5081438;28;20181;-71
2022/01/28 05:53:53;;;;;;;103.20;46.80;;;;;;;-3.06;100.00;-23728.16;5078393;28;20608;-72
2022/01/28 05:56:19;;;;;;;98.23;45.97;;;;;;;-3.21;100.00;-23723.97;5078441;28;20275;-73
2022/01/28 05:58:44;;;;;;;111.63;50.77;;;;;;;-3.50;100.00;-23715.63;5079001;28;20265;-72
2022/01/28 06:01:10;;;;;;;83.50;41.20;;;;;;;-3.52;100.00;-23715.06;5081440;28;20181;-72
2022/01/28 06:03:35;;;;;;;78.43;37.43;;;;;;;-3.08;100.00;-23727.72;5079889;28;20722;-72
2022/01/28 06:06:01;;;;;;;68.97;33.40;;;;;;;-3.53;100.00;-23714.94;5076416;28;20680;-73
2022/01/28 06:08:26;;;;;;;66.10;32.90;;;;;;;-3.34;100.00;-23720.38;5081854;28;20228;-72
2022/01/28 06:10:51;;;;;;;65.10;33.20;;;;;;;-3.41;100.00;-23718.22;5061000;28;20673;-72
2022/01/28 06:13:17;;;;;;;67.70;32.83;;;;;;;-3.57;100.00;-23713.91;5075709;28;20243;-73
2022/01/28 06:15:43;;;;;;;59.40;30.10;;;;;;;-2.98;100.00;-23730.44;5078481;28;20193;-74
2022/01/28 06:18:10;;;;;;;56.50;28.57;;;;;;;-2.98;100.00;-23730.59;5081879;28;20696;-73
2022/01/28 06:20:36;;;;;;;59.83;30.87;;;;;;;-3.09;100.00;-23727.44;5076375;28;20212;-73
2022/01/28 06:23:02;;;;;;;54.30;28.10;;;;;;;-3.28;100.00;-23722.13;5072459;28;20221;-72
2022/01/28 06:25:27;;;;;;;56.30;28.10;;;;;;;-2.86;100.00;-23734.03;5091706;28;20522;-72
2022/01/28 06:27:52;;;;;;;56.40;29.33;;;;;;;-2.93;100.00;-23732.03;5067470;28;20189;-72
2022/01/28 06:30:20;;;;;;;58.00;26.57;;;;;;;-2.84;100.00;-23734.63;5053424;28;20170;-74
2022/01/28 06:32:47;;;;;;;56.63;27.73;;;;;;;-2.61;100.00;-23740.94;5070182;28;20185;-73
2022/01/28 06:35:13;;;;;;;54.63;28.50;;;;;;;-2.74;100.00;-23737.50;5070687;28;20176;-73
2022/01/28 06:37:41;;;;;;;55.27;27.03;;;;;;;-2.47;100.00;-23744.97;5069992;28;20174;-73
2022/01/28 06:40:08;;;;;;;61.10;29.40;;;;;;;-2.49;100.00;-23744.53;5070935;28;20177;-72
2022/01/28 06:42:34;;;;;;;63.73;30.30;;;;;;;-2.39;100.00;-23747.25;5071099;28;20174;-72
2022/01/28 06:44:59;;;;;;;55.70;28.40;;;;;;;-2.55;100.00;-23742.66;5070413;28;20177;-73
2022/01/28 06:47:26;;;;;;;57.93;27.87;;;;;;;-2.77;100.00;-23736.63;5070641;28;20170;-72
2022/01/28 06:49:51;;;;;;;51.80;26.23;;;;;;;-2.39;100.00;-23747.25;5070539;28;20612;-73
2022/01/28 06:52:17;;;;;;;51.73;25.80;;;;;;;-2.14;100.00;-23754.44;5075105;28;20220;-73
2022/01/28 06:54:42;;;;;;;50.87;24.10;;;;;;;-2.24;100.00;-23751.56;5075151;28;20180;-73
2022/01/28 06:57:08;;;;;;;46.77;23.63;;;;;;;-2.22;100.00;-23752.28;5076062;28;20181;-73
2022/01/28 06:59:33;;;;;;;51.40;25.53;;;;;;;-2.38;100.00;-23747.69;5061416;28;20668;-73
2022/01/28 07:01:58;;;;;;;56.33;27.70;;;;;;;-1.82;100.00;-23763.50;5075835;28;20182;-73
2022/01/28 07:04:24;;;;;;;63.40;31.83;;;;;;;-1.46;100.00;-23773.69;5076947;28;20174;-73
2022/01/28 07:06:50;;;;;;;53.07;28.67;;;;;;;-1.26;100.00;-23779.41;5086279;28;20312;-72
2022/01/28 07:09:17;;;;;;;57.97;29.57;;;;;;;-1.73;100.00;-23765.94;5081582;28;20182;-72
2022/01/28 07:11:43;;;;;;;62.33;29.60;;;;;;;-0.82;100.00;-23791.75;5075127;28;20177;-73
2022/01/28 07:14:11;;;;;;;63.97;31.43;;;;;;;-0.70;100.00;-23795.19;5064540;28;20190;-73
2022/01/28 07:16:37;;;;;;;58.67;30.67;;;;;;;-0.93;100.00;-23788.75;5076928;28;20245;-73
2022/01/28 07:19:03;;;;;;;61.23;30.17;;;;;;;-0.52;100.00;-23800.50;5083245;28;20187;-72
2022/01/28 07:21:28;;;;;;;59.63;29.73;;;;;;;-0.79;100.00;-23792.75;5074752;28;20194;-73
2022/01/28 07:23:54;;;;;;;57.40;29.53;;;;;;;-0.20;100.00;-23809.53;5084106;28;20668;-73
2022/01/28 07:26:20;;;;;;;58.50;30.83;;;;;;;0.11;100.00;-23818.13;5074838;28;20200;-73
2022/01/28 07:28:46;;;;;;;69.00;31.37;;;;;;;0.24;100.00;-23821.84;5069890;28;20195;-72
2022/01/28 07:31:14;;;;;;;63.07;30.30;;;;;;;0.58;100.00;-23831.56;5078381;28;20644;-72
2022/01/28 07:33:41;;;;;;;51.73;25.53;;;;;;;0.83;100.00;-23838.59;5086002;28;20197;-72
2022/01/28 07:36:07;;;;;;;60.37;30.07;;;;;;;0.82;100.00;-23838.44;5074860;28;20209;-73
2022/01/28 07:38:33;;;;;;;55.20;27.67;;;;;;;1.14;100.00;-23847.44;5069758;28;20186;-73
2022/01/28 07:41:16;;;;;;;51.30;27.20;;;;;;;1.43;100.00;-23855.47;5069458;28;20194;-72
2022/01/28 07:43:42;;;;;;;51.37;25.97;;;;;;;1.26;100.00;-23850.88;5068742;28;20273;-73
2022/01/28 07:46:07;;;;;;;41.37;22.80;;;;;;;1.14;100.00;-23847.31;5057028;28;20294;-71
2022/01/28 07:48:33;;;;;;;48.33;24.40;;;;;;;1.49;100.00;-23857.31;5083773;28;20183;-72
2022/01/28 07:50:58;;;;;;;49.67;27.47;;;;;;;1.59;100.00;-23860.16;5072544;28;20276;-73
2022/01/28 07:53:24;;;;;;;44.77;25.47;;;;;;;1.30;100.00;-23852.03;5082223;28;20261;-72
2022/01/28 07:55:49;;;;;;;42.93;21.97;;;;;;;1.31;100.00;-23852.16;5080045;28;20262;-72
2022/01/28 07:58:15;;;;;;;40.17;20.90;;;;;;;1.57;100.00;-23859.59;5083767;28;20198;-73
2022/01/28 08:00:55;;;;;;;45.17;21.43;;;;;;;1.85;100.00;-23867.47;5073586;28;20263;-73
2022/01/28 08:03:20;;;;;;;42.90;20.73;;;;;;;1.74;100.00;-23864.31;5084650;28;20191;-73
2022/01/28 08:05:46;;;;;;;38.33;18.57;;;;;;;2.48;100.00;-23885.16;5076092;28;20283;-73
2022/01/28 08:08:13;;;;;;;36.37;19.20;;;;;;;2.56;100.00;-23887.59;5064021;28;20615;-73
2022/01/28 08:10:38;;;;;;;35.90;18.47;;;;;;;2.22;100.00;-23877.88;5083551;28;20212;-73
2022/01/28 08:13:05;;;;;;;30.10;17.30;;;;;;;2.67;100.00;-23890.59;5084298;28;20236;-73
2022/01/28 08:15:31;;;;;;;38.47;19.70;;;;;;;2.37;100.00;-23882.03;5079199;28;20192;-73
2022/01/28 08:17:57;;;;;;;33.93;19.47;;;;;;;2.86;100.00;-23896.00;5077510;28;20189;-73
2022/01/28 08:20:23;;;;;;;38.37;20.43;;;;;;;2.96;100.00;-23898.72;5078521;28;20174;-72
2022/01/28 08:22:50;;;;;;;39.77;19.93;;;;;;;3.20;100.00;-23905.56;5076963;28;21021;-73
2022/01/28 08:25:27;;;;;;;37.20;19.63;;;;;;;3.33;100.00;-23909.28;5059325;28;20216;-73
2022/01/28 08:27:56;;;;;;;38.47;20.07;;;;;;;3.18;100.00;-23904.84;5060636;28;20200;-73
2022/01/28 08:30:24;;;;;;;37.83;19.97;;;;;;;3.53;99.72;-23914.84;5074434;28;20196;-73
2022/01/28 08:32:50;;;;;;;35.83;20.43;;;;;;;3.52;98.92;-23914.69;5083917;28;20209;-73
2022/01/28 08:35:17;;;;;;;35.50;19.43;;;;;;;3.87;97.14;-23924.53;5059847;28;20681;-73
2022/01/28 08:37:43;;;;;;;38.03;18.90;;;;;;;3.43;95.24;-23912.13;5059569;28;20186;-72
2022/01/28 08:40:12;;;;;;;43.83;20.30;;;;;;;3.58;95.39;-23916.25;5076578;28;20625;-72
2022/01/28 08:42:37;;;;;;;36.47;20.53;;;;;;;3.64;95.11;-23917.81;5061719;28;20177;-73
2022/01/28 08:45:04;;;;;;;31.17;18.07;;;;;;;4.07;91.66;-23930.06;5082269;28;20304;-73
2022/01/28 08:47:29;;;;;;;33.73;19.43;;;;;;;3.77;93.27;-23921.53;5078919;28;20182;-73
2022/01/28 08:49:55;;;;;;;36.07;18.37;;;;;;;3.35;94.76;-23909.84;5077602;28;20178;-73
2022/01/28 08:52:20;;;;;;;36.63;19.03;;;;;;;3.73;93.89;-23920.38;5078261;28;20287;-73
2022/01/28 08:54:47;;;;;;;33.77;17.97;;;;;;;3.67;93.76;-23918.69;5077679;28;20182;-73
2022/01/28 08:57:12;;;;;;;38.00;19.70;;;;;;;4.24;92.17;-23934.78;5078535;28;20189;-73
2022/01/28 08:59:39;;;;;;;36.47;19.63;;;;;;;4.23;92.27;-23934.63;5078355;28;20260;-73
2022/01/28 09:02:05;;;;;;;38.40;19.43;;;;;;;3.99;91.35;-23927.81;5060596;28;20185;-73
2022/01/28 09:04:31;;;;;;;42.83;20.63;;;;;;;4.27;89.96;-23935.78;5078611;28;20563;-73
2022/01/28 09:06:56;;;;;;;39.03;20.13;;;;;;;4.25;91.28;-23935.22;5077967;28;20585;-73
2022/01/28 09:09:22;;;;;;;40.57;20.20;;;;;;;4.50;91.00;-23942.03;5060818;28;20191;-73
2022/01/28 09:12:06;;;;;;;41.03;20.80;;;;;;;4.55;90.76;-23943.59;5076400;28;20644;-73
2022/01/28 09:14:31;;;;;;;33.73;19.40;;;;;;;4.58;90.27;-23944.47;5078527;28;20197;-72
2022/01/28 09:16:57;;;;;;;32.90;18.43;;;;;;;4.68;90.54;-23947.16;5077486;28;20177;-72
2022/01/28 09:19:22;;;;;;;30.53;15.50;;;;;;;4.52;88.65;-23942.59;5078611;28;20190;-72
2022/01/28 09:21:48;;;;;;;28.63;13.37;;;;;;;4.59;86.46;-23944.59;5076553;28;20549;-72
2022/01/28 09:24:13;;;;;;;23.90;12.43;;;;;;;5.11;85.11;-23959.25;5079632;28;20189;-74
2022/01/28 09:26:39;;;;;;;20.70;11.63;;;;;;;5.34;81.12;-23965.78;5074811;28;20669;-72
2022/01/28 09:29:04;;;;;;;20.37;11.30;;;;;;;5.57;79.13;-23972.19;5080738;28;20542;-73
2022/01/28 09:31:30;;;;;;;18.03;11.03;;;;;;;6.08;78.70;-23986.56;5073534;28;20178;-73
2022/01/28 09:33:55;;;;;;;14.80;5.00;;;;;;;6.48;68.60;-23997.75;5082246;28;20582;-73
2022/01/28 09:36:21;;;;;;;7.03;3.70;;;;;;;6.81;62.17;-24007.00;5071592;28;20264;-73
2022/01/28 09:38:47;;;;;;;3.50;2.93;;;;;;;7.23;58.61;-24018.75;5082885;28;20189;-72
2022/01/28 09:41:14;;;;;;;6.50;3.60;;;;;;;7.44;55.87;-24024.72;5072663;28;20189;-72
2022/01/28 09:43:43;;;;;;;7.50;4.07;;;;;;;7.67;54.28;-24031.25;5065470;28;20190;-72
2022/01/28 09:46:09;;;;;;;5.27;3.60;;;;;;;8.00;52.65;-24040.44;5072852;28;20182;-72
2022/01/28 09:48:35;;;;;;;4.33;3.30;;;;;;;8.02;52.15;-24041.00;5083494;28;20243;-72
2022/01/28 09:51:02;;;;;;;3.73;3.00;;;;;;;8.04;50.94;-24041.56;5059126;28;20186;-73
2022/01/28 09:53:29;;;;;;;4.03;2.90;;;;;;;7.97;50.69;-24039.72;5081671;28;20277;-72
2022/01/28 09:55:54;;;;;;;7.13;2.50;;;;;;;8.34;49.97;-24049.94;5057540;28;20238;-72
2022/01/28 09:58:21;;;;;;;8.60;2.70;;;;;;;8.37;50.02;-24050.78;5075722;28;20190;-72
2022/01/28 10:00:46;;;;;;;3.83;2.70;;;;;;;8.33;48.23;-24049.66;5078986;28;20184;-72
2022/01/28 10:03:14;;;;;;;4.50;2.93;;;;;;;8.88;46.93;-24064.94;5083221;28;20185;-72
2022/01/28 10:05:41;;;;;;;8.17;3.30;;;;;;;8.93;45.28;-24066.34;5071126;28;20232;-72
2022/01/28 10:08:17;;;;;;;7.33;3.40;;;;;;;9.39;44.39;-24079.22;5082809;28;20177;-72
2022/01/28 10:11:03;;;;;;;9.67;3.60;;;;;;;9.42;42.88;-24080.22;5084362;28;20212;-72
2022/01/28 10:16:07;;;;;;;5.30;3.37;;;;;;;9.64;42.22;-24086.44;5076900;28;20641;-73
2022/01/28 10:18:49;;;;;;;6.43;3.23;;;;;;;9.82;41.10;-24091.22;5081384;28;20632;-72
2022/01/28 10:21:19;;;;;;;5.03;3.10;;;;;;;10.20;41.11;-24101.97;5083747;28;20268;-73
2022/01/28 10:24:18;;;;;;;4.60;2.90;;;;;;;10.22;41.01;-24102.53;5078800;28;20273;-71
2022/01/28 10:26:51;;;;;;;5.23;2.50;;;;;;;10.17;40.32;-24101.25;5063866;28;20565;-72
2022/01/28 10:29:25;;;;;;;7.68;2.50;;;;;;;10.19;39.35;-24101.69;5061832;28;20276;-72
2022/01/28 10:31:52;;;;;;;5.15;2.70;;;;;;;10.35;38.56;-24106.06;5077559;28;20177;-72
2022/01/28 10:34:28;;;;;;;11.30;3.40;;;;;;;10.68;38.31;-24115.38;5080869;28;20721;-72
2022/01/28 10:37:16;;;;;;;7.10;3.30;;;;;;;11.26;37.97;-24131.44;5093567;28;20157;-72
2022/01/28 10:39:49;;;;;;;8.63;3.67;;;;;;;11.27;37.93;-24131.72;5079350;28;20193;-71
2022/01/28 10:42:36;;;;;;;15.02;3.72;;;;;;;11.39;37.77;-24135.09;5078100;28;20683;-72
2022/01/28 10:45:10;;;;;;;8.52;3.60;;;;;;;11.56;37.64;-24139.75;5079324;28;20182;-72
2022/01/28 10:47:48;;;;;;;13.90;4.07;;;;;;;11.80;37.44;-24146.66;5079365;28;20648;-72
2022/01/28 10:50:26;;;;;;;8.48;5.00;;;;;;;11.52;37.50;-24138.78;5088507;28;20181;-72
2022/01/28 10:52:59;;;;;;;6.78;4.10;;;;;;;11.91;37.65;-24149.75;5059705;28;20679;-72
2022/01/28 10:55:25;;;;;;;8.02;3.85;;;;;;;11.55;37.34;-24139.47;5074345;28;20267;-72
2022/01/28 10:58:03;;;;;;;14.23;4.35;;;;;;;11.47;37.26;-24137.34;5082618;28;20272;-72
2022/01/28 11:00:31;;;;;;;6.65;4.10;;;;;;;11.35;38.02;-24134.13;5068817;28;20251;-72
2022/01/28 11:03:02;;;;;;;6.00;3.92;;;;;;;11.34;38.53;-24133.84;5064494;28;20602;-71
2022/01/28 11:05:30;;;;;;;9.27;4.30;;;;;;;11.02;39.29;-24124.81;5081444;28;20221;-72
2022/01/28 11:08:00;;;;;;;9.18;4.40;;;;;;;10.92;39.25;-24122.00;5082602;28;20182;-72
2022/01/28 11:10:26;;;;;;;9.32;4.80;;;;;;;11.40;39.26;-24135.53;5087796;28;20272;-72
2022/01/28 11:12:52;;;;;;;6.30;4.30;;;;;;;11.56;38.96;-24139.75;5066018;28;20350;-71
2022/01/28 11:15:19;;;;;;;7.30;4.22;;;;;;;11.33;38.79;-24133.56;5064070;28;20221;-71
2022/01/28 11:17:46;;;;;;;7.90;4.95;;;;;;;11.58;39.28;-24140.31;5077077;28;20234;-72
2022/01/28 11:20:13;;;;;;;9.70;5.40;;;;;;;11.48;39.59;-24137.63;5065808;28;20553;-71
2022/01/28 11:22:59;;;;;;;12.38;5.20;;;;;;;11.32;40.39;-24133.28;5082053;28;20180;-72
2022/01/28 11:25:42;;;;;;;10.00;5.25;;;;;;;11.58;39.79;-24140.31;5077953;28;20194;-72
2022/01/28 11:28:10;;;;;;;7.97;4.72;;;;;;;11.97;39.99;-24151.31;5083380;28;20264;-73
2022/01/28 11:30:54;;;;;;;7.70;4.45;;;;;;;12.08;39.30;-24154.25;5075465;28;20557;-71
2022/01/28 11:33:20;;;;;;;6.93;4.20;;;;;;;11.96;38.65;-24151.03;5085170;28;20205;-71
2022/01/28 11:35:52;;;;;;;9.95;4.05;;;;;;;12.31;37.96;-24160.88;5079697;28;20185;-71
2022/01/28 11:38:29;;;;;;;6.97;4.20;;;;;;;12.30;38.41;-24160.47;5081742;28;20208;-70
2022/01/28 11:41:10;;;;;;;7.72;4.55;;;;;;;12.31;38.86;-24160.88;5080169;28;20185;-72
2022/01/28 11:43:45;;;;;;;8.68;4.78;;;;;;;12.16;39.04;-24156.53;5062759;28;20192;-76
2022/01/28 11:46:18;;;;;;;6.82;4.70;;;;;;;12.00;39.03;-24152.16;5066059;28;20187;-72
2022/01/28 11:48:55;;;;;;;12.18;4.90;;;;;;;12.29;38.53;-24160.31;5083213;28;20186;-72
2022/01/28 11:51:32;;;;;;;13.77;5.18;;;;;;;12.42;38.41;-24163.69;5081292;28;20269;-72
2022/01/28 11:54:00;;;;;;;11.75;4.85;;;;;;;12.42;38.33;-24163.84;5080291;28;20236;-73
2022/01/28 11:56:27;;;;;;;14.32;4.38;;;;;;;12.41;37.33;-24163.56;5077478;28;20689;-71
2022/01/28 11:58:57;;;;;;;15.73;4.50;;;;;;;12.09;37.92;-24154.69;5080688;28;20184;-70
2022/01/28 12:01:45;;;;;;;38.90;4.18;;;;;;;12.46;38.07;-24164.81;5076428;28;20174;-71
2022/01/28 12:04:23;;;;;;;13.95;3.50;;;;;;;12.68;38.68;-24171.00;5081090;28;20633;-71
2022/01/28 12:06:55;;;;;;;10.85;3.40;;;;;;;12.97;37.99;-24179.16;5077259;28;20691;-72
2022/01/28 12:09:23;;;;;;;8.68;3.20;;;;;;;12.43;38.67;-24163.97;5085311;28;20210;-72
2022/01/28 12:11:50;;;;;;;11.25;3.28;;;;;;;12.45;39.23;-24164.53;5077676;28;20185;-72
2022/01/28 12:14:16;;;;;;;13.48;3.45;;;;;;;12.36;38.58;-24162.28;5080730;28;20185;-74
2022/01/28 12:16:45;;;;;;;6.72;3.05;;;;;;;12.11;39.63;-24155.25;5076163;28;21282;-72
2022/01/28 12:19:16;;;;;;;5.13;3.47;;;;;;;11.98;39.93;-24151.44;5078503;28;20239;-72
2022/01/28 12:22:07;;;;;;;9.77;3.22;;;;;;;11.87;40.58;-24148.50;5076316;28;20264;-71
2022/01/28 12:24:35;;;;;;;7.47;3.17;;;;;;;11.47;41.32;-24137.34;5079053;28;20178;-71
2022/01/28 12:27:00;;;;;;;15.05;3.50;;;;;;;11.86;41.03;-24148.34;5079056;28;20174;-71
2022/01/28 12:29:42;;;;;;;13.95;3.40;;;;;;;11.50;41.89;-24138.34;5078589;28;20182;-72
2022/01/28 12:32:07;;;;;;;9.10;3.92;;;;;;;11.56;41.92;-24139.75;5079069;28;20196;-70
2022/01/28 12:34:33;;;;;;;10.93;3.80;;;;;;;11.24;42.14;-24131.03;5078657;28;20251;-71
2022/01/28 12:36:59;;;;;;;6.93;3.35;;;;;;;11.11;43.08;-24127.22;5078462;28;20181;-71
2022/01/28 12:39:51;;;;;;;8.30;3.63;;;;;;;11.25;43.28;-24131.31;5092981;28;20180;-70
2022/01/28 12:42:23;;;;;;;9.23;3.47;;;;;;;11.40;43.21;-24135.53;5079290;28;20213;-71
2022/01/28 12:44:54;;;;;;;13.05;3.90;;;;;;;11.22;43.27;-24130.47;5072872;28;20325;-71
2022/01/28 12:47:20;;;;;;;9.75;3.65;;;;;;;11.37;43.87;-24134.53;5054757;28;20231;-70
2022/01/28 12:49:46;;;;;;;6.97;3.40;;;;;;;11.31;44.09;-24132.84;5054714;28;20613;-71
2022/01/28 12:52:12;;;;;;;11.63;4.10;;;;;;;11.15;44.72;-24128.47;5072710;28;20284;-70
2022/01/28 12:54:40;;;;;;;8.48;3.88;;;;;;;11.43;44.93;-24136.22;5072933;28;20182;-71